createdAt,value
2022-12-10T00:02:38.452Z,9.20
2022-12-10T00:05:41.104Z,9.93
2022-12-10T00:08:43.780Z,9.23
2022-12-10T00:11:46.749Z,9.27
2022-12-10T00:14:49.750Z,9.70
2022-12-10T00:17:52.579Z,9.68
2022-12-10T00:20:55.318Z,11.25
2022-12-10T00:23:57.786Z,10.68
2022-12-10T00:27:00.305Z,9.32
2022-12-10T00:30:02.526Z,10.27
2022-12-10T00:33:04.679Z,9.48
2022-12-10T00:36:06.910Z,8.95
2022-12-10T00:39:09.353Z,9.57
2022-12-10T00:42:12.100Z,9.73
2022-12-10T00:45:14.926Z,9.35
2022-12-10T00:48:17.587Z,9.43
2022-12-10T00:51:19.761Z,9.32
2022-12-10T00:54:21.989Z,8.40
2022-12-10T00:57:24.206Z,9.00
2022-12-10T01:00:26.659Z,9.20
2022-12-10T01:03:29.842Z,9.30
2022-12-10T01:06:32.215Z,9.45
2022-12-10T01:09:34.823Z,9.82
2022-12-10T01:12:36.946Z,9.38
2022-12-10T01:15:39.175Z,9.98
2022-12-10T01:18:41.340Z,10.13
2022-12-10T01:21:43.898Z,9.95
2022-12-10T01:24:46.644Z,9.07
2022-12-10T01:27:48.780Z,9.35
2022-12-10T01:30:52.715Z,8.98
2022-12-10T01:33:55.010Z,9.32
2022-12-10T01:36:57.885Z,9.13
2022-12-10T01:40:00.472Z,9.27
2022-12-10T01:43:03.098Z,9.60
2022-12-10T01:46:06.018Z,9.25
2022-12-10T01:49:10.169Z,9.25
2022-12-10T01:52:13.989Z,8.63
2022-12-10T01:55:16.894Z,9.85
2022-12-10T01:58:19.899Z,9.52
2022-12-10T02:01:22.647Z,9.80
2022-12-10T02:04:25.793Z,9.43
2022-12-10T02:07:28.234Z,9.43
2022-12-10T02:10:31.189Z,10.23
2022-12-10T02:13:33.817Z,9.70
2022-12-10T02:16:37.166Z,10.10
2022-12-10T02:19:39.853Z,9.27
2022-12-10T02:22:42.388Z,9.05
2022-12-10T02:25:45.114Z,9.05
2022-12-10T02:28:48.284Z,8.68
2022-12-10T02:31:51.712Z,9.13
2022-12-10T02:34:54.307Z,9.55
2022-12-10T02:37:57.218Z,8.90
2022-12-10T02:41:00.033Z,9.20
2022-12-10T02:44:02.467Z,9.65
2022-12-10T02:47:05.140Z,8.85
2022-12-10T02:50:12.420Z,9.30
2022-12-10T02:53:15.318Z,9.45
2022-12-10T02:56:18.057Z,9.32
2022-12-10T02:59:23.178Z,10.07
2022-12-10T03:02:29.221Z,10.20
2022-12-10T03:05:31.644Z,9.55
2022-12-10T03:08:34.727Z,9.93
2022-12-10T03:11:37.500Z,9.65
2022-12-10T03:14:40.361Z,9.85
2022-12-10T03:17:42.987Z,9.80
2022-12-10T03:20:45.273Z,9.82
2022-12-10T03:23:47.896Z,8.95
2022-12-10T03:26:50.902Z,9.32
2022-12-10T03:29:53.770Z,9.77
2022-12-10T03:32:56.609Z,9.68
2022-12-10T03:35:59.055Z,9.35
2022-12-10T03:39:01.932Z,10.00
2022-12-10T03:42:05.020Z,10.32
2022-12-10T03:45:07.843Z,10.13
2022-12-10T03:48:10.717Z,10.73
2022-12-10T03:51:13.125Z,10.55
2022-12-10T03:54:15.871Z,11.15
2022-12-10T03:57:18.662Z,11.75
2022-12-10T04:00:21.734Z,12.07
2022-12-10T04:03:24.836Z,11.65
2022-12-10T04:06:27.666Z,11.70
2022-12-10T04:09:30.533Z,11.05
2022-12-10T04:12:33.922Z,11.93
2022-12-10T04:15:37.307Z,11.70
2022-12-10T04:18:40.030Z,10.95
2022-12-10T04:21:42.846Z,11.82
2022-12-10T04:24:45.054Z,11.77
2022-12-10T04:27:47.285Z,11.65
2022-12-10T04:30:50.204Z,11.90
2022-12-10T04:33:53.027Z,11.38
2022-12-10T04:36:55.357Z,12.50
2022-12-10T04:39:57.989Z,11.70
2022-12-10T04:43:00.482Z,13.23
2022-12-10T04:46:02.963Z,13.38
2022-12-10T04:49:05.207Z,14.27
2022-12-10T04:52:07.419Z,13.68
2022-12-10T04:55:10.247Z,13.73
2022-12-10T04:58:12.837Z,13.13
2022-12-10T05:01:15.417Z,13.15
2022-12-10T05:04:18.002Z,13.48
2022-12-10T05:07:20.901Z,13.68
2022-12-10T05:10:24.329Z,12.90
2022-12-10T05:13:28.721Z,12.55
2022-12-10T05:16:31.688Z,12.20
2022-12-10T05:19:34.721Z,12.65
2022-12-10T05:22:37.396Z,12.57
2022-12-10T05:25:40.429Z,12.45
2022-12-10T05:28:43.405Z,12.02
2022-12-10T05:31:45.806Z,11.98
2022-12-10T05:34:48.446Z,12.77
2022-12-10T05:37:50.898Z,12.63
2022-12-10T05:40:57.023Z,13.07
2022-12-10T05:44:00.796Z,12.45
2022-12-10T05:47:04.189Z,13.63
2022-12-10T05:50:07.668Z,13.68
2022-12-10T05:53:10.865Z,13.57
2022-12-10T05:56:13.327Z,13.32
2022-12-10T05:59:17.255Z,13.23
2022-12-10T06:02:20.041Z,12.13
2022-12-10T06:05:22.214Z,12.70
2022-12-10T06:08:24.604Z,12.07
2022-12-10T06:11:27.620Z,12.15
2022-12-10T06:14:30.941Z,12.63
2022-12-10T06:17:34.711Z,12.63
2022-12-10T06:20:37.318Z,12.35
2022-12-10T06:23:39.902Z,12.82
2022-12-10T06:26:42.553Z,11.85
2022-12-10T06:29:45.591Z,12.48
2022-12-10T06:32:48.740Z,12.55
2022-12-10T06:35:51.511Z,12.93
2022-12-10T06:38:54.862Z,13.50
2022-12-10T06:41:59.209Z,13.82
2022-12-10T06:45:02.244Z,13.23
2022-12-10T06:48:05.519Z,13.10
2022-12-10T06:51:09.314Z,13.73
2022-12-10T06:54:12.508Z,13.27
2022-12-10T06:57:15.733Z,12.77
2022-12-10T07:00:21.878Z,13.00
2022-12-10T07:03:24.451Z,12.10
2022-12-10T07:06:27.260Z,12.23
2022-12-10T07:09:30.295Z,11.50
2022-12-10T07:12:33.029Z,12.23
2022-12-10T07:15:36.106Z,13.10
2022-12-10T07:18:38.540Z,12.75
2022-12-10T07:21:40.681Z,11.98
2022-12-10T07:24:43.069Z,12.32
2022-12-10T07:27:46.040Z,12.85
2022-12-10T07:30:48.977Z,12.80
2022-12-10T07:33:51.995Z,12.93
2022-12-10T07:36:54.727Z,13.50
2022-12-10T07:39:57.588Z,13.38
2022-12-10T07:43:00.197Z,13.27
2022-12-10T07:46:02.910Z,13.75
2022-12-10T07:49:05.766Z,12.90
2022-12-10T07:52:08.609Z,13.65
2022-12-10T07:55:12.512Z,13.10
2022-12-10T07:58:14.913Z,13.45
2022-12-10T08:01:17.198Z,12.70
2022-12-10T08:04:19.648Z,11.65
2022-12-10T08:07:22.339Z,12.05
2022-12-10T08:10:25.435Z,12.45
2022-12-10T08:13:28.281Z,12.45
2022-12-10T08:16:30.480Z,12.98
2022-12-10T08:19:33.156Z,12.88
2022-12-10T08:22:35.281Z,12.05
2022-12-10T08:25:40.632Z,12.10
2022-12-10T08:28:43.300Z,12.40
2022-12-10T08:31:46.068Z,13.25
2022-12-10T08:34:48.510Z,13.25
2022-12-10T08:37:51.891Z,12.95
2022-12-10T08:40:54.117Z,12.65
2022-12-10T08:43:57.059Z,14.02
2022-12-10T08:46:59.905Z,13.98
2022-12-10T08:50:02.763Z,13.77
2022-12-10T08:53:05.680Z,12.98
2022-12-10T08:56:08.767Z,12.82
2022-12-10T08:59:11.740Z,12.43
2022-12-10T09:02:14.368Z,12.18
2022-12-10T09:05:17.146Z,11.98
2022-12-10T09:08:19.626Z,12.82
2022-12-10T09:11:21.837Z,12.30
2022-12-10T09:14:25.038Z,12.02
2022-12-10T09:17:27.675Z,11.60
2022-12-10T09:20:30.392Z,12.85
2022-12-10T09:23:33.213Z,12.35
2022-12-10T09:26:37.015Z,12.00
2022-12-10T09:29:39.862Z,12.75
2022-12-10T09:32:42.107Z,12.98
2022-12-10T09:35:45.058Z,11.93
2022-12-10T09:38:48.249Z,13.48
2022-12-10T09:41:51.044Z,12.93
2022-12-10T09:44:53.685Z,12.90
2022-12-10T09:47:56.442Z,12.38
2022-12-10T09:51:00.178Z,12.13
2022-12-10T09:54:03.164Z,12.48
2022-12-10T09:57:05.780Z,11.05
2022-12-10T10:00:08.770Z,11.98
2022-12-10T10:03:14.057Z,10.60
2022-12-10T10:06:17.349Z,10.75
2022-12-10T10:09:20.864Z,11.00
2022-12-10T10:12:23.380Z,10.90
2022-12-10T10:15:26.866Z,10.77
2022-12-10T10:18:29.508Z,11.07
2022-12-10T10:21:33.499Z,10.98
2022-12-10T10:24:36.785Z,11.23
2022-12-10T10:27:40.136Z,11.77
2022-12-10T10:30:43.472Z,10.82
2022-12-10T10:33:46.045Z,10.60
2022-12-10T10:36:48.856Z,11.27
2022-12-10T10:39:52.819Z,11.50
2022-12-10T10:42:56.075Z,11.80
2022-12-10T10:45:59.425Z,12.02
2022-12-10T10:49:03.321Z,11.63
2022-12-10T10:52:06.732Z,11.40
2022-12-10T10:55:09.979Z,11.13
2022-12-10T10:58:12.887Z,11.23
2022-12-10T11:01:15.861Z,10.50
2022-12-10T11:04:19.100Z,10.13
2022-12-10T11:07:22.306Z,10.27
2022-12-10T11:10:25.476Z,10.48
2022-12-10T11:13:28.468Z,10.43
2022-12-10T11:16:30.911Z,10.25
2022-12-10T11:19:34.136Z,10.02
2022-12-10T11:22:36.995Z,10.27
2022-12-10T11:25:40.056Z,10.95
2022-12-10T11:28:43.490Z,10.30
2022-12-10T11:31:45.621Z,10.90
2022-12-10T11:34:48.472Z,10.32
2022-12-10T11:37:50.773Z,11.48
2022-12-10T11:40:53.597Z,10.55
2022-12-10T11:43:56.105Z,10.95
2022-12-10T11:46:59.140Z,10.82
2022-12-10T11:50:02.406Z,10.75
2022-12-10T11:53:05.958Z,10.70
2022-12-10T11:56:09.219Z,10.73
2022-12-10T11:59:16.876Z,10.50
2022-12-10T12:02:20.410Z,10.23
2022-12-10T12:05:24.183Z,10.05
2022-12-10T12:08:28.128Z,9.75
2022-12-10T12:11:31.870Z,9.88
2022-12-10T12:14:34.621Z,9.52
2022-12-10T12:17:37.716Z,9.57
2022-12-10T12:20:40.635Z,9.73
2022-12-10T12:23:43.174Z,8.73
2022-12-10T12:26:45.636Z,9.52
2022-12-10T12:29:47.949Z,9.65
2022-12-10T12:32:51.101Z,9.60
2022-12-10T12:35:55.019Z,9.80
2022-12-10T12:38:59.488Z,10.85
2022-12-10T12:42:03.870Z,9.50
2022-12-10T12:45:06.743Z,9.40
2022-12-10T12:48:09.525Z,9.77
2022-12-10T12:51:12.832Z,10.30
2022-12-10T12:54:16.389Z,9.95
2022-12-10T12:57:20.423Z,9.90
2022-12-10T13:00:23.626Z,10.20
2022-12-10T13:03:26.529Z,9.80
2022-12-10T13:06:29.148Z,9.10
2022-12-10T13:09:32.120Z,9.20
2022-12-10T13:12:35.434Z,9.25
2022-12-10T13:15:38.646Z,9.02
2022-12-10T13:18:41.086Z,9.40
2022-12-10T13:21:43.591Z,9.35
2022-12-10T13:24:46.360Z,9.35
2022-12-10T13:27:49.250Z,8.48
2022-12-10T13:30:52.350Z,9.27
2022-12-10T13:33:54.516Z,8.88
2022-12-10T13:36:57.135Z,9.23
2022-12-10T13:40:00.338Z,9.13
2022-12-10T13:43:03.568Z,9.02
2022-12-10T13:46:06.746Z,9.40
2022-12-10T13:49:09.293Z,9.60
2022-12-10T13:52:12.418Z,9.20
2022-12-10T13:55:21.212Z,9.68
2022-12-10T13:58:24.662Z,9.70
2022-12-10T14:01:27.803Z,9.02
2022-12-10T14:04:31.831Z,8.45
2022-12-10T14:07:35.501Z,8.70
2022-12-10T14:10:38.722Z,8.00
2022-12-10T14:13:41.920Z,8.27
2022-12-10T14:16:44.810Z,8.57
2022-12-10T14:19:47.572Z,7.75
2022-12-10T14:22:50.549Z,8.05
2022-12-10T14:25:53.115Z,7.75
2022-12-10T14:28:55.581Z,8.07
2022-12-10T14:31:59.087Z,7.68
2022-12-10T14:35:02.571Z,8.00
2022-12-10T14:38:05.438Z,8.07
2022-12-10T14:41:08.412Z,8.48
2022-12-10T14:44:11.934Z,7.63
2022-12-10T14:47:15.838Z,7.90
2022-12-10T14:50:19.031Z,8.15
2022-12-10T14:53:28.021Z,8.27
2022-12-10T14:56:31.679Z,7.72
2022-12-10T14:59:34.707Z,7.50
2022-12-10T15:02:38.198Z,7.95
2022-12-10T15:05:41.642Z,8.13
2022-12-10T15:08:43.816Z,7.82
2022-12-10T15:11:47.092Z,7.32
2022-12-10T15:14:51.282Z,7.70
2022-12-10T15:17:54.950Z,7.88
2022-12-10T15:20:58.408Z,7.05
2022-12-10T15:24:01.840Z,7.38
2022-12-10T15:27:04.259Z,7.20
2022-12-10T15:30:06.951Z,6.90
2022-12-10T15:33:09.983Z,7.60
2022-12-10T15:36:12.994Z,7.95
2022-12-10T15:39:16.074Z,7.15
2022-12-10T15:42:19.255Z,7.47
2022-12-10T15:45:23.044Z,7.20
2022-12-10T15:48:27.548Z,8.07
2022-12-10T15:51:31.399Z,7.45
2022-12-10T15:54:33.787Z,7.70
2022-12-10T15:57:35.981Z,7.70
2022-12-10T16:00:38.979Z,7.43
2022-12-10T16:03:42.089Z,8.15
2022-12-10T16:06:45.046Z,7.60
2022-12-10T16:09:47.793Z,7.20
2022-12-10T16:12:50.688Z,6.88
2022-12-10T16:15:53.043Z,7.13
2022-12-10T16:18:55.493Z,7.15
2022-12-10T16:21:58.119Z,7.35
2022-12-10T16:25:01.107Z,7.55
2022-12-10T16:28:04.044Z,7.63
2022-12-10T16:31:06.187Z,7.15
2022-12-10T16:34:08.338Z,7.88
2022-12-10T16:37:11.006Z,7.80
2022-12-10T16:40:14.738Z,7.60
2022-12-10T16:43:17.917Z,8.10
2022-12-10T16:46:21.192Z,7.70
2022-12-10T16:49:24.471Z,8.13
2022-12-10T16:52:26.931Z,8.38
2022-12-10T16:55:29.530Z,7.68
2022-12-10T16:58:32.900Z,8.52
2022-12-10T17:01:35.604Z,8.15
2022-12-10T17:04:37.770Z,8.10
2022-12-10T17:07:40.337Z,8.00
2022-12-10T17:10:45.028Z,7.50
2022-12-10T17:13:47.968Z,7.55
2022-12-10T17:16:50.949Z,7.50
2022-12-10T17:19:53.826Z,7.70
2022-12-10T17:22:55.946Z,7.85
2022-12-10T17:25:58.143Z,7.70
2022-12-10T17:29:01.214Z,8.15
2022-12-10T17:32:04.294Z,8.20
2022-12-10T17:35:07.216Z,8.10
2022-12-10T17:38:09.968Z,8.23
2022-12-10T17:41:12.808Z,8.15
2022-12-10T17:44:16.453Z,8.85
2022-12-10T17:47:19.567Z,8.63
2022-12-10T17:50:22.287Z,8.88
2022-12-10T17:53:25.012Z,9.52
2022-12-10T17:56:27.424Z,8.57
2022-12-10T17:59:30.200Z,9.02
2022-12-10T18:02:33.612Z,8.90
2022-12-10T18:05:37.297Z,8.70
2022-12-10T18:08:40.356Z,8.95
2022-12-10T18:11:43.000Z,8.23
2022-12-10T18:14:45.709Z,8.52
2022-12-10T18:17:48.405Z,9.05
2022-12-10T18:20:50.884Z,8.30
2022-12-10T18:23:53.573Z,8.43
2022-12-10T18:26:55.986Z,8.40
2022-12-10T18:29:58.627Z,9.05
2022-12-10T18:33:02.018Z,8.95
2022-12-10T18:36:04.927Z,8.77
2022-12-10T18:39:08.063Z,9.13
2022-12-10T18:42:10.401Z,8.80
2022-12-10T18:45:13.559Z,8.57
2022-12-10T18:48:16.549Z,9.68
2022-12-10T18:51:19.345Z,9.75
2022-12-10T18:54:22.146Z,9.63
2022-12-10T18:57:33.954Z,9.15
2022-12-10T19:00:38.946Z,9.35
2022-12-10T19:03:47.930Z,9.30
2022-12-10T19:06:51.203Z,9.25
2022-12-10T19:09:54.616Z,9.00
2022-12-10T19:12:57.638Z,9.05
2022-12-10T19:16:00.844Z,8.93
2022-12-10T19:19:04.362Z,9.05
2022-12-10T19:22:07.831Z,8.93
2022-12-10T19:25:10.713Z,8.63
2022-12-10T19:28:19.226Z,9.55
2022-12-10T19:31:21.935Z,8.73
2022-12-10T19:34:24.621Z,8.65
2022-12-10T19:37:27.556Z,9.55
2022-12-10T19:40:30.414Z,9.40
2022-12-10T19:43:33.191Z,9.48
2022-12-10T19:46:35.883Z,9.50
2022-12-10T19:49:38.116Z,9.90
2022-12-10T19:52:40.677Z,10.13
2022-12-10T19:55:43.279Z,9.73
2022-12-10T19:58:45.947Z,9.70
2022-12-10T20:01:49.168Z,9.32
2022-12-10T20:04:52.347Z,9.90
2022-12-10T20:07:55.747Z,10.15
2022-12-10T20:10:58.955Z,9.18
2022-12-10T20:14:02.291Z,9.05
2022-12-10T20:17:04.848Z,9.63
2022-12-10T20:20:07.482Z,9.63
2022-12-10T20:23:10.077Z,9.70
2022-12-10T20:26:13.143Z,9.88
2022-12-10T20:29:18.583Z,9.07
2022-12-10T20:32:21.881Z,10.02
2022-12-10T20:35:24.905Z,9.10
2022-12-10T20:38:28.613Z,9.82
2022-12-10T20:41:30.989Z,9.73
2022-12-10T20:44:34.145Z,9.30
2022-12-10T20:47:39.909Z,10.45
2022-12-10T20:50:42.501Z,9.98
2022-12-10T20:53:45.199Z,10.13
2022-12-10T20:56:47.962Z,10.35
2022-12-10T20:59:50.685Z,10.57
2022-12-10T21:02:53.490Z,9.82
2022-12-10T21:05:55.711Z,10.13
2022-12-10T21:08:58.723Z,10.00
2022-12-10T21:12:01.837Z,10.05
2022-12-10T21:15:14.162Z,9.95
2022-12-10T21:18:21.997Z,9.80
2022-12-10T21:21:24.627Z,9.57
2022-12-10T21:24:27.885Z,10.02
2022-12-10T21:27:31.474Z,9.85
2022-12-10T21:30:35.208Z,9.27
2022-12-10T21:33:39.900Z,9.35
2022-12-10T21:36:42.670Z,9.80
2022-12-10T21:39:44.925Z,9.90
2022-12-10T21:42:47.583Z,9.40
2022-12-10T21:45:50.807Z,9.43
2022-12-10T21:48:53.977Z,9.75
2022-12-10T21:51:56.578Z,9.95
2022-12-10T21:54:59.138Z,10.25
2022-12-10T21:58:01.995Z,9.85
2022-12-10T22:01:05.487Z,10.70
2022-12-10T22:04:09.952Z,9.25
2022-12-10T22:07:15.731Z,9.88
2022-12-10T22:10:18.881Z,9.63
2022-12-10T22:13:22.313Z,9.45
2022-12-10T22:16:25.844Z,9.50
2022-12-10T22:19:29.433Z,8.88
2022-12-10T22:22:32.382Z,8.77
2022-12-10T22:25:35.271Z,9.60
2022-12-10T22:28:38.404Z,9.40
2022-12-10T22:31:41.097Z,8.82
2022-12-10T22:34:45.536Z,9.43
2022-12-10T22:37:48.125Z,8.50
2022-12-10T22:40:51.295Z,9.20
2022-12-10T22:43:54.158Z,9.05
2022-12-10T22:46:58.661Z,8.77
2022-12-10T22:50:01.744Z,10.18
2022-12-10T22:53:05.046Z,9.57
2022-12-10T22:56:07.800Z,9.73
2022-12-10T22:59:10.980Z,9.18
2022-12-10T23:02:13.870Z,9.73
2022-12-10T23:05:16.574Z,9.85
2022-12-10T23:08:19.305Z,10.35
2022-12-10T23:11:22.419Z,9.60
2022-12-10T23:14:25.248Z,9.35
2022-12-10T23:17:28.065Z,8.77
2022-12-10T23:20:30.299Z,9.00
2022-12-10T23:23:33.234Z,9.15
2022-12-10T23:26:40.083Z,8.88
2022-12-10T23:29:44.975Z,9.00
2022-12-10T23:32:47.421Z,9.05
2022-12-10T23:35:50.637Z,8.98
2022-12-10T23:38:53.690Z,8.95
2022-12-10T23:41:57.471Z,8.52
2022-12-10T23:45:00.892Z,7.82
2022-12-10T23:48:03.946Z,8.57
2022-12-10T23:51:07.163Z,9.38
2022-12-10T23:54:10.095Z,9.07
2022-12-10T23:57:12.763Z,9.15
